Time;durP1;ratioP1;P1;durP2;ratioP2;P2;SDS_P1;SDS_P2;PMS_P1;PMS_P2;Temp;Humidity;BMP_temperature;BMP_pressure;BME280_temperature;BME280_humidity;BME280_pressure;Samples;Min_cycle;Max_cycle;Signal;HPM_P1;HPM_P2
2024/01/11 00:01:20;;;;;;;38.78;17.50;;;-5.30;99.90;;;;;;5014963;28;20068;-77
2024/01/11 00:03:46;;;;;;;42.63;18.08;;;-5.30;99.90;;;;;;5012032;28;20104;-77
2024/01/11 00:06:13;;;;;;;43.85;18.67;;;-5.30;99.90;;;;;;5034510;28;20048;-77
2024/01/11 00:08:40;;;;;;;46.53;18.70;;;-5.30;99.90;;;;;;5011862;28;20035;-77
2024/01/11 00:11:06;;;;;;;39.28;18.65;;;-5.30;99.90;;;;;;5010538;28;20038;-77
2024/01/11 00:13:33;;;;;;;46.97;20.48;;;-5.40;99.90;;;;;;5015344;28;20276;-77
2024/01/11 00:15:59;;;;;;;45.15;18.90;;;-5.40;99.90;;;;;;5013942;28;20042;-77
2024/01/11 00:18:26;;;;;;;42.92;19.00;;;-5.40;99.90;;;;;;5002321;28;20039;-77
2024/01/11 00:20:53;;;;;;;42.35;18.75;;;-5.30;99.90;;;;;;5011760;28;20042;-77
2024/01/11 00:23:19;;;;;;;42.00;18.42;;;-5.40;99.90;;;;;;4995816;28;20038;-77
2024/01/11 00:25:46;;;;;;;43.50;19.33;;;-4.80;99.90;;;;;;5001413;28;20034;-77
2024/01/11 00:28:12;;;;;;;40.00;18.55;;;-5.40;99.90;;;;;;5005326;28;20117;-77
2024/01/11 00:30:39;;;;;;;44.85;19.27;;;-5.40;99.90;;;;;;4995753;28;20069;-77
2024/01/11 00:33:06;;;;;;;43.72;18.35;;;-5.30;99.90;;;;;;4995626;28;20467;-77
2024/01/11 00:35:33;;;;;;;41.28;18.33;;;-5.30;99.90;;;;;;4983127;28;20038;-77
2024/01/11 00:38:00;;;;;;;43.28;19.48;;;-5.30;99.90;;;;;;5022427;28;20044;-77
2024/01/11 00:40:26;;;;;;;43.67;18.83;;;-5.30;99.90;;;;;;4995705;28;20773;-77
2024/01/11 00:42:53;;;;;;;49.42;19.98;;;-5.30;99.90;;;;;;4997826;28;20096;-77
2024/01/11 00:45:19;;;;;;;42.33;18.27;;;-5.30;99.90;;;;;;4995356;28;20111;-77
2024/01/11 00:47:46;;;;;;;44.55;18.08;;;-5.30;99.90;;;;;;5010622;28;20043;-77
2024/01/11 00:50:13;;;;;;;43.00;18.50;;;-5.30;99.90;;;;;;4982238;28;20051;-77
2024/01/11 00:52:39;;;;;;;46.00;19.48;;;-5.30;99.90;;;;;;4995733;28;20043;-77
2024/01/11 00:55:07;;;;;;;46.22;20.33;;;-5.30;99.90;;;;;;4995315;28;20121;-77
2024/01/11 00:57:33;;;;;;;45.65;18.85;;;-5.30;99.90;;;;;;4985857;28;20389;-77
2024/01/11 01:00:00;;;;;;;40.10;18.23;;;-4.50;99.90;;;;;;5007940;28;20041;-77
2024/01/11 01:02:26;;;;;;;43.60;19.67;;;-5.30;99.90;;;;;;4995220;28;20831;-77
2024/01/11 01:04:53;;;;;;;47.80;19.70;;;-5.30;99.90;;;;;;4998964;28;20045;-77
2024/01/11 01:07:20;;;;;;;46.60;19.65;;;-5.20;99.90;;;;;;5004142;28;20568;-77
2024/01/11 01:09:46;;;;;;;42.70;19.08;;;-6.10;99.90;;;;;;5024031;28;20073;-77
2024/01/11 01:12:13;;;;;;;46.55;19.88;;;-5.30;99.90;;;;;;5018789;28;20056;-77
2024/01/11 01:14:39;;;;;;;50.88;20.90;;;-5.20;99.90;;;;;;5012311;28;20044;-77
2024/01/11 01:17:06;;;;;;;51.08;18.60;;;-5.30;99.90;;;;;;5018405;28;20076;-77
2024/01/11 01:19:33;;;;;;;44.47;19.80;;;-5.20;99.90;;;;;;4994996;28;20042;-77
2024/01/11 01:21:59;;;;;;;42.80;19.15;;;-5.20;99.90;;;;;;4994858;28;20049;-77
2024/01/11 01:24:26;;;;;;;46.05;20.02;;;-5.10;99.90;;;;;;4994596;28;20049;-77
2024/01/11 01:26:53;;;;;;;45.70;19.88;;;-5.20;99.90;;;;;;4994597;28;20046;-77
2024/01/11 01:29:19;;;;;;;46.30;18.55;;;-5.20;99.90;;;;;;4988614;28;20392;-77
2024/01/11 01:31:46;;;;;;;45.97;19.60;;;-5.20;99.90;;;;;;4991567;28;20042;-77
2024/01/11 01:34:14;;;;;;;47.40;19.85;;;-5.20;99.90;;;;;;4994734;28;20045;-77
2024/01/11 01:36:41;;;;;;;45.47;20.35;;;-5.20;99.90;;;;;;4994374;28;20035;-77
2024/01/11 01:39:07;;;;;;;43.45;19.70;;;-5.20;99.90;;;;;;5017728;28;20042;-77
2024/01/11 01:41:34;;;;;;;45.83;18.83;;;-5.20;99.90;;;;;;4997663;28;20035;-77
2024/01/11 01:44:01;;;;;;;54.70;20.67;;;-5.20;99.90;;;;;;4994821;28;20046;-77
2024/01/11 01:46:28;;;;;;;47.90;20.00;;;-5.10;99.90;;;;;;4994815;28;20046;-77
2024/01/11 01:48:57;;;;;;;52.08;20.00;;;-5.20;99.90;;;;;;5031139;28;20041;-77
2024/01/11 01:51:26;;;;;;;50.53;20.85;;;-5.20;99.90;;;;;;5002315;28;20503;-77
2024/01/11 01:53:54;;;;;;;51.88;20.08;;;-5.20;99.90;;;;;;5000127;28;20121;-77
2024/01/11 01:56:21;;;;;;;51.92;21.38;;;-5.20;99.90;;;;;;5014190;28;20045;-77
2024/01/11 01:58:51;;;;;;;49.17;19.98;;;-5.20;99.90;;;;;;5016700;28;20395;-77
2024/01/11 02:01:20;;;;;;;48.42;20.27;;;-5.30;99.90;;;;;;5014521;28;20038;-77
2024/01/11 02:03:50;;;;;;;44.83;20.08;;;-5.30;99.90;;;;;;5003022;28;20076;-77
2024/01/11 02:06:16;;;;;;;46.83;20.30;;;-5.30;99.90;;;;;;5014417;28;20046;-77
2024/01/11 02:08:44;;;;;;;48.75;20.52;;;-5.30;99.90;;;;;;5022773;28;20048;-77
2024/01/11 02:11:11;;;;;;;46.88;19.20;;;-5.30;99.90;;;;;;5004566;28;20567;-77
2024/01/11 02:13:37;;;;;;;46.97;19.70;;;-5.30;99.90;;;;;;5017594;28;20129;-77
2024/01/11 02:16:04;;;;;;;44.90;19.92;;;-5.40;99.90;;;;;;5014783;28;20050;-77
2024/01/11 02:18:31;;;;;;;47.72;21.40;;;-5.40;99.90;;;;;;5014388;28;20042;-77
2024/01/11 02:20:58;;;;;;;42.42;19.50;;;-5.40;99.90;;;;;;5027334;28;20089;-77
2024/01/11 02:23:26;;;;;;;42.20;18.15;;;-5.50;99.90;;;;;;5023855;28;20042;-77
2024/01/11 02:26:06;;;;;;;43.15;18.20;;;-5.50;99.90;;;;;;5004086;28;20048;-77
2024/01/11 02:28:34;;;;;;;44.88;19.77;;;-5.50;99.90;;;;;;5010705;28;20046;-77
2024/01/11 02:31:00;;;;;;;45.50;19.30;;;-5.50;99.90;;;;;;4998413;28;20492;-77
2024/01/11 02:33:27;;;;;;;43.70;19.40;;;-5.50;99.90;;;;;;5013763;28;20096;-78
2024/01/11 02:35:54;;;;;;;49.67;19.27;;;-5.50;99.90;;;;;;5013921;28;20042;-77
2024/01/11 02:38:21;;;;;;;43.03;19.50;;;-5.50;99.90;;;;;;4997951;28;20035;-77
2024/01/11 02:40:49;;;;;;;46.58;19.80;;;-5.50;99.90;;;;;;4998096;28;20117;-77
2024/01/11 02:43:15;;;;;;;46.13;20.15;;;-5.50;99.90;;;;;;4999077;28;20074;-77
2024/01/11 02:45:42;;;;;;;38.95;18.63;;;-5.50;99.90;;;;;;5009236;28;20096;-77
2024/01/11 02:48:08;;;;;;;44.17;19.02;;;-5.60;99.90;;;;;;5009771;28;20252;-77
2024/01/11 02:50:35;;;;;;;44.45;19.30;;;-5.60;99.90;;;;;;5004154;28;20054;-77
2024/01/11 02:53:02;;;;;;;49.25;20.98;;;-5.60;99.90;;;;;;5005195;28;20046;-77
2024/01/11 02:55:28;;;;;;;45.58;20.10;;;-5.60;99.90;;;;;;4989670;28;20026;-77
2024/01/11 02:57:55;;;;;;;42.40;18.90;;;-5.60;99.90;;;;;;4997439;28;20501;-77
2024/01/11 03:00:22;;;;;;;52.22;21.40;;;-5.60;99.90;;;;;;4997824;28;20051;-77
2024/01/11 03:02:48;;;;;;;54.58;21.73;;;-5.60;99.90;;;;;;5026251;28;20035;-79
2024/01/11 03:05:15;;;;;;;48.97;19.70;;;-5.60;99.90;;;;;;5000768;28;20042;-79
2024/01/11 03:07:41;;;;;;;46.22;20.05;;;-5.70;99.90;;;;;;4997580;28;20038;-79
2024/01/11 03:10:08;;;;;;;44.25;17.88;;;-5.70;99.90;;;;;;4997546;28;20096;-79
2024/01/11 03:12:35;;;;;;;44.05;18.92;;;-5.70;99.90;;;;;;4997379;28;20499;-79
2024/01/11 03:15:02;;;;;;;51.92;20.30;;;-5.70;99.90;;;;;;5012766;28;20092;-79
2024/01/11 03:17:28;;;;;;;45.55;18.48;;;-5.70;99.90;;;;;;5036969;28;20040;-79
2024/01/11 03:19:55;;;;;;;48.15;19.60;;;-5.70;99.90;;;;;;5005956;28;20067;-79
2024/01/11 03:22:22;;;;;;;45.53;18.52;;;-5.60;99.90;;;;;;5000056;28;20487;-79
2024/01/11 03:24:48;;;;;;;47.55;19.05;;;-5.60;99.90;;;;;;4988821;28;20034;-80
2024/01/11 03:27:15;;;;;;;47.53;19.63;;;-5.50;99.90;;;;;;5008149;28;20045;-79
2024/01/11 03:29:42;;;;;;;51.47;19.63;;;-5.50;99.90;;;;;;4993195;28;20038;-77
2024/01/11 03:32:12;;;;;;;43.45;19.65;;;-5.40;99.90;;;;;;4999580;28;20484;-77
2024/01/11 03:34:39;;;;;;;49.35;21.23;;;-5.30;99.90;;;;;;5025292;28;20090;-77
2024/01/11 03:37:05;;;;;;;48.67;19.85;;;-5.20;99.90;;;;;;5000192;28;20077;-77
2024/01/11 03:39:33;;;;;;;45.65;19.45;;;-5.20;99.90;;;;;;4996650;28;20041;-77
2024/01/11 03:41:59;;;;;;;49.35;19.20;;;-5.10;99.90;;;;;;4996294;28;20042;-77
2024/01/11 03:44:26;;;;;;;50.65;20.70;;;-4.70;99.90;;;;;;4996537;28;20058;-77
2024/01/11 03:46:53;;;;;;;46.75;19.83;;;-5.10;99.90;;;;;;4996466;28;20057;-77
2024/01/11 03:49:19;;;;;;;51.30;21.30;;;-5.00;99.90;;;;;;5012497;28;20042;-77
2024/01/11 03:51:46;;;;;;;51.40;21.35;;;-5.00;99.90;;;;;;5000172;28;20458;-77
2024/01/11 03:54:12;;;;;;;51.42;20.67;;;-5.00;99.90;;;;;;4997883;28;20031;-77
2024/01/11 03:56:39;;;;;;;51.95;21.00;;;-4.90;99.90;;;;;;4996506;28;20044;-77
2024/01/11 03:59:06;;;;;;;53.70;22.10;;;-4.90;99.90;;;;;;5006593;28;20042;-77
2024/01/11 04:01:33;;;;;;;57.03;23.13;;;-4.80;99.90;;;;;;4998685;28;20110;-77
2024/01/11 04:04:00;;;;;;;57.42;21.08;;;-4.80;99.90;;;;;;5006363;28;20486;-77
2024/01/11 04:06:26;;;;;;;50.80;20.48;;;-4.70;99.90;;;;;;5008733;28;20045;-77
2024/01/11 04:08:53;;;;;;;52.53;21.17;;;-4.70;99.90;;;;;;5000269;28;20093;-77
2024/01/11 04:11:19;;;;;;;58.58;21.95;;;-4.60;99.90;;;;;;5015926;28;20041;-77
2024/01/11 04:13:46;;;;;;;52.20;21.27;;;-4.60;99.90;;;;;;5013539;28;20045;-77
2024/01/11 04:16:13;;;;;;;50.45;21.00;;;-4.60;99.90;;;;;;5014681;28;20045;-77
2024/01/11 04:18:39;;;;;;;44.67;20.58;;;-4.50;99.90;;;;;;5011943;28;20034;-77
2024/01/11 04:21:06;;;;;;;57.00;21.83;;;-4.50;99.90;;;;;;5011908;28;20121;-78
2024/01/11 04:23:33;;;;;;;50.22;20.77;;;-4.40;99.90;;;;;;4984764;28;20034;-77
2024/01/11 04:25:59;;;;;;;47.05;20.25;;;-4.40;99.90;;;;;;5006990;28;20039;-77
2024/01/11 04:28:26;;;;;;;49.85;20.35;;;-4.40;99.90;;;;;;4992356;28;20486;-77
2024/01/11 04:30:52;;;;;;;48.90;20.95;;;-4.30;99.90;;;;;;4989559;28;20034;-77
2024/01/11 04:33:19;;;;;;;47.70;20.17;;;-4.30;99.90;;;;;;5005265;28;20101;-77
2024/01/11 04:35:45;;;;;;;55.78;22.17;;;-4.30;99.90;;;;;;5010967;28;20129;-77
2024/01/11 04:38:12;;;;;;;53.95;21.63;;;-4.20;99.90;;;;;;4995892;28;20124;-77
2024/01/11 04:40:39;;;;;;;49.38;21.38;;;-4.20;99.90;;;;;;5030914;28;20034;-77
2024/01/11 04:43:07;;;;;;;51.08;20.55;;;-4.10;99.90;;;;;;5002076;28;20121;-77
2024/01/11 04:45:34;;;;;;;49.67;20.17;;;-4.10;99.90;;;;;;4999160;28;20046;-77
2024/01/11 04:48:00;;;;;;;54.22;22.30;;;-4.10;99.90;;;;;;4983245;28;20037;-77
2024/01/11 04:50:27;;;;;;;48.58;21.27;;;-4.10;99.90;;;;;;5015790;28;20445;-77
2024/01/11 04:52:54;;;;;;;52.53;20.90;;;-4.00;99.90;;;;;;5014264;28;20050;-77
2024/01/11 04:55:20;;;;;;;49.42;21.25;;;-4.00;99.90;;;;;;5008968;28;20077;-78
2024/01/11 04:57:47;;;;;;;50.70;20.83;;;-3.90;99.90;;;;;;5012279;28;20117;-78
2024/01/11 05:00:14;;;;;;;47.88;19.55;;;-3.90;99.90;;;;;;4990419;28;20050;-77
2024/01/11 05:02:41;;;;;;;45.75;19.55;;;-3.90;99.90;;;;;;4991840;28;20125;-77
2024/01/11 05:05:08;;;;;;;52.40;20.83;;;-3.80;99.90;;;;;;5010187;28;20094;-77
2024/01/11 05:07:34;;;;;;;46.80;20.13;;;-3.70;99.90;;;;;;4995453;28;20054;-77
2024/01/11 05:10:01;;;;;;;53.17;21.17;;;-3.70;99.90;;;;;;4994927;28;20042;-77
2024/01/11 05:12:27;;;;;;;50.03;21.08;;;-3.60;99.90;;;;;;5026916;28;20124;-77
2024/01/11 05:14:54;;;;;;;51.35;22.40;;;-3.60;99.90;;;;;;4982457;28;20404;-77
2024/01/11 05:17:21;;;;;;;50.90;20.80;;;-3.60;99.90;;;;;;5023969;28;20038;-78
2024/01/11 05:19:50;;;;;;;49.97;20.58;;;-3.60;99.90;;;;;;4988094;28;20034;-77
2024/01/11 05:22:17;;;;;;;54.03;21.63;;;-3.60;99.90;;;;;;4994754;28;20049;-77
2024/01/11 05:24:44;;;;;;;53.05;19.92;;;-3.60;99.90;;;;;;5006154;28;20512;-78
2024/01/11 05:27:10;;;;;;;51.55;20.02;;;-3.50;99.90;;;;;;5010947;28;20109;-77
2024/01/11 05:29:37;;;;;;;51.25;21.25;;;-3.50;99.90;;;;;;4994674;28;20038;-78
2024/01/11 05:32:04;;;;;;;53.00;21.33;;;-3.50;99.90;;;;;;4995941;28;20518;-77
2024/01/11 05:34:30;;;;;;;46.92;19.48;;;-3.40;99.90;;;;;;4994786;28;20038;-77
2024/01/11 05:36:57;;;;;;;52.28;20.17;;;-3.40;99.90;;;;;;4982232;28;20125;-78
2024/01/11 05:39:24;;;;;;;50.92;20.95;;;-3.40;99.90;;;;;;4994479;28;20108;-77
2024/01/11 05:41:50;;;;;;;52.08;19.95;;;-3.40;99.90;;;;;;4999929;28;20578;-78
2024/01/11 05:44:17;;;;;;;53.28;21.48;;;-3.30;99.90;;;;;;4994762;28;20064;-77
2024/01/11 05:46:44;;;;;;;50.45;21.38;;;-3.30;99.90;;;;;;5040015;28;20047;-78
2024/01/11 05:49:10;;;;;;;50.25;20.92;;;-3.20;99.90;;;;;;4994488;28;20038;-78
2024/01/11 05:51:37;;;;;;;55.03;22.70;;;-3.20;99.90;;;;;;4994699;28;20522;-78
2024/01/11 05:54:04;;;;;;;49.58;21.30;;;-3.20;99.90;;;;;;5014110;28;20049;-77
2024/01/11 05:56:30;;;;;;;49.75;20.35;;;-3.20;99.90;;;;;;4995849;28;20037;-77
2024/01/11 05:58:57;;;;;;;58.67;22.20;;;-3.10;99.90;;;;;;5006906;28;20074;-77
2024/01/11 06:01:24;;;;;;;47.33;20.50;;;-3.10;99.90;;;;;;4989583;28;20543;-78
2024/01/11 06:03:50;;;;;;;49.83;20.40;;;-3.10;99.90;;;;;;5007263;28;20042;-78
2024/01/11 06:06:17;;;;;;;47.22;19.70;;;-3.00;99.90;;;;;;5023198;28;20042;-78
2024/01/11 06:08:43;;;;;;;48.15;20.25;;;-3.10;99.90;;;;;;4994795;28;20042;-78
2024/01/11 06:11:10;;;;;;;49.42;20.55;;;-3.00;99.90;;;;;;5000903;28;20038;-78
2024/01/11 06:13:36;;;;;;;51.47;20.48;;;-3.00;99.90;;;;;;5004806;28;20042;-78
2024/01/11 06:16:03;;;;;;;45.95;20.48;;;-3.00;99.90;;;;;;5013338;28;20042;-78
2024/01/11 06:18:30;;;;;;;45.47;19.48;;;-3.00;99.90;;;;;;5013828;28;20120;-78
2024/01/11 06:20:57;;;;;;;46.30;19.85;;;-2.90;99.90;;;;;;5010515;28;20042;-78
2024/01/11 06:23:25;;;;;;;49.30;20.80;;;-2.90;99.90;;;;;;4995069;28;20078;-78
2024/01/11 06:25:51;;;;;;;52.20;20.50;;;-2.90;99.90;;;;;;4994191;28;20418;-78
2024/01/11 06:28:18;;;;;;;50.63;19.55;;;-2.90;99.90;;;;;;4994546;28;20046;-78
2024/01/11 06:30:44;;;;;;;51.47;21.02;;;-2.00;99.90;;;;;;5026349;28;20050;-78
2024/01/11 06:33:11;;;;;;;50.95;20.40;;;-2.80;99.90;;;;;;5001208;28;20033;-78
2024/01/11 06:35:38;;;;;;;50.55;20.48;;;-2.40;99.90;;;;;;5001452;28;20411;-78
2024/01/11 06:38:05;;;;;;;52.60;20.60;;;-2.80;99.90;;;;;;5000652;28;20537;-78
2024/01/11 06:40:31;;;;;;;48.08;19.85;;;-2.70;99.90;;;;;;5011021;28;20039;-78
2024/01/11 06:42:58;;;;;;;50.20;19.50;;;-2.00;99.90;;;;;;5021483;28;20041;-78
2024/01/11 06:45:24;;;;;;;53.60;21.42;;;-2.70;99.90;;;;;;5012105;28;20491;-78
2024/01/11 06:47:51;;;;;;;49.85;19.88;;;-2.70;99.90;;;;;;5010138;28;20083;-78
2024/01/11 06:50:17;;;;;;;53.42;21.10;;;-2.70;99.90;;;;;;5011105;28;20129;-78
2024/01/11 06:52:44;;;;;;;44.13;19.42;;;-2.70;99.90;;;;;;4997652;28;20418;-78
2024/01/11 06:55:11;;;;;;;50.17;20.90;;;-2.70;99.90;;;;;;5000426;28;20036;-78
2024/01/11 06:57:38;;;;;;;51.30;19.85;;;-2.70;99.90;;;;;;4999084;28;20073;-78
2024/01/11 07:00:07;;;;;;;48.05;19.58;;;-2.60;99.90;;;;;;5009748;28;20758;-78
2024/01/11 07:02:33;;;;;;;51.58;19.95;;;-2.60;99.90;;;;;;5003384;28;20096;-78
2024/01/11 07:05:00;;;;;;;49.03;19.85;;;-2.60;99.90;;;;;;5042918;28;20045;-78
2024/01/11 07:07:27;;;;;;;45.30;20.20;;;-2.60;99.90;;;;;;4988364;28;20042;-78
2024/01/11 07:09:55;;;;;;;48.08;20.15;;;-2.60;99.90;;;;;;5012602;28;20042;-79
2024/01/11 07:12:22;;;;;;;41.28;19.05;;;-2.60;99.90;;;;;;5006846;28;20047;-78
2024/01/11 07:14:48;;;;;;;51.40;20.13;;;-2.60;99.90;;;;;;5021005;28;20046;-78
2024/01/11 07:17:15;;;;;;;52.33;20.70;;;-2.50;99.90;;;;;;5000446;28;20034;-77
2024/01/11 07:19:42;;;;;;;48.95;19.48;;;-2.50;99.90;;;;;;4997192;28;20428;-77
2024/01/11 07:22:08;;;;;;;49.88;21.40;;;-2.50;99.90;;;;;;4997250;28;20426;-78
2024/01/11 07:24:38;;;;;;;47.63;20.33;;;-2.50;99.90;;;;;;5019725;28;20399;-78
2024/01/11 07:27:05;;;;;;;43.78;19.08;;;-2.50;99.90;;;;;;5012890;28;20046;-77
2024/01/11 07:29:33;;;;;;;51.85;20.90;;;-2.40;99.90;;;;;;4996967;28;20038;-78
2024/01/11 07:32:00;;;;;;;53.60;21.73;;;-2.40;99.90;;;;;;4992295;28;20131;-78
2024/01/11 07:34:28;;;;;;;47.30;20.48;;;-2.40;99.90;;;;;;5005136;28;20863;-78
2024/01/11 07:36:54;;;;;;;47.65;19.55;;;-2.40;99.90;;;;;;4988324;28;20034;-78
2024/01/11 07:39:22;;;;;;;47.50;19.85;;;-2.30;99.90;;;;;;4999041;28;20069;-78
2024/01/11 07:41:49;;;;;;;49.58;19.67;;;-2.30;99.90;;;;;;5000236;28;20085;-78
2024/01/11 07:44:15;;;;;;;43.88;18.25;;;-2.20;99.90;;;;;;5000238;28;20073;-77
2024/01/11 07:46:43;;;;;;;54.55;19.40;;;-2.20;99.90;;;;;;5004133;28;20052;-78
2024/01/11 07:49:10;;;;;;;48.85;19.48;;;-2.20;99.90;;;;;;5005394;28;20045;-78
2024/01/11 07:51:36;;;;;;;47.90;20.00;;;-2.10;99.90;;;;;;5009205;28;20461;-77
2024/01/11 07:54:04;;;;;;;49.30;19.30;;;-2.10;99.90;;;;;;5014662;28;20033;-78
2024/01/11 07:56:31;;;;;;;42.75;19.02;;;-2.10;99.90;;;;;;5006908;28;20451;-77
2024/01/11 07:58:58;;;;;;;45.05;20.02;;;-2.10;99.90;;;;;;4996045;28;20092;-78
2024/01/11 08:01:24;;;;;;;44.40;19.02;;;-0.90;99.90;;;;;;4992148;28;20047;-78
2024/01/11 08:03:52;;;;;;;43.67;18.55;;;-2.00;99.90;;;;;;5035918;28;20045;-77
2024/01/11 08:06:18;;;;;;;45.30;18.60;;;-2.00;99.90;;;;;;5009824;28;20047;-77
2024/01/11 08:08:51;;;;;;;47.80;20.30;;;-2.00;99.90;;;;;;5011363;28;20514;-78
2024/01/11 08:11:18;;;;;;;45.63;18.85;;;-1.90;99.90;;;;;;4983231;28;20049;-77
2024/01/11 08:13:45;;;;;;;44.92;19.02;;;-1.90;99.90;;;;;;4994832;28;20133;-78
2024/01/11 08:16:16;;;;;;;40.28;18.30;;;-1.90;99.90;;;;;;5014323;28;20173;-78
2024/01/11 08:18:44;;;;;;;48.92;20.20;;;-1.90;99.90;;;;;;4987176;28;20504;-78
2024/01/11 08:21:11;;;;;;;48.45;19.17;;;-1.80;99.90;;;;;;5004990;28;20093;-78
2024/01/11 08:23:44;;;;;;;43.47;17.95;;;-1.80;99.90;;;;;;5009539;28;20081;-78
2024/01/11 08:26:13;;;;;;;50.25;19.30;;;-1.80;99.90;;;;;;5009799;28;20097;-78
2024/01/11 08:28:40;;;;;;;45.47;18.65;;;-1.80;99.90;;;;;;4985007;28;20042;-78
2024/01/11 08:31:07;;;;;;;40.50;18.73;;;-1.70;99.90;;;;;;4985130;28;20046;-78
2024/01/11 08:33:34;;;;;;;41.45;18.10;;;-1.70;99.90;;;;;;5046218;28;20125;-77
2024/01/11 08:36:03;;;;;;;42.92;18.08;;;-1.70;99.90;;;;;;5004140;28;20118;-82
2024/01/11 08:38:30;;;;;;;40.72;17.55;;;-1.60;99.90;;;;;;5006278;28;20491;-81
2024/01/11 08:40:58;;;;;;;44.70;18.50;;;-1.60;99.90;;;;;;5006205;28;20491;-81
2024/01/11 08:43:26;;;;;;;47.92;18.13;;;-1.00;99.90;;;;;;5006409;28;20422;-81
2024/01/11 08:45:54;;;;;;;42.38;17.38;;;-1.50;99.90;;;;;;5021412;28;20451;-82
2024/01/11 08:48:21;;;;;;;47.30;18.38;;;-0.90;99.90;;;;;;5001894;28;20085;-81
2024/01/11 08:50:47;;;;;;;44.53;17.98;;;-1.40;99.90;;;;;;5001806;28;20076;-81
2024/01/11 08:53:15;;;;;;;39.13;17.35;;;-0.50;99.90;;;;;;5013044;28;20046;-80
2024/01/11 08:55:42;;;;;;;43.10;18.80;;;-1.30;99.90;;;;;;4995410;28;20069;-81
2024/01/11 08:58:10;;;;;;;43.05;17.25;;;-1.30;99.90;;;;;;4991163;28;20062;-81
2024/01/11 09:00:37;;;;;;;40.13;17.55;;;-1.30;99.90;;;;;;4992607;28;20041;-81
2024/01/11 09:03:04;;;;;;;43.42;17.30;;;-1.20;99.90;;;;;;4982298;28;20533;-81
2024/01/11 09:05:31;;;;;;;44.80;17.73;;;-1.20;99.90;;;;;;4996587;28;20039;-80
2024/01/11 09:07:58;;;;;;;40.38;17.92;;;-0.10;99.90;;;;;;4996114;28;20093;-81
2024/01/11 09:10:25;;;;;;;43.60;18.38;;;-1.10;99.90;;;;;;5010954;28;20034;-81
2024/01/11 09:12:52;;;;;;;45.05;18.23;;;-1.10;99.90;;;;;;4985220;28;20785;-81
2024/01/11 09:15:19;;;;;;;42.10;17.92;;;-1.10;99.90;;;;;;5003672;28;20039;-81
2024/01/11 09:17:46;;;;;;;39.45;17.92;;;-1.00;99.90;;;;;;5020041;28;20038;-81
2024/01/11 09:20:14;;;;;;;41.78;18.25;;;-1.00;99.90;;;;;;4979597;28;20031;-82
2024/01/11 09:22:41;;;;;;;43.33;17.52;;;-1.00;99.90;;;;;;5029150;28;20045;-81
2024/01/11 09:25:08;;;;;;;46.70;17.65;;;-0.90;99.90;;;;;;5009839;28;20475;-81
2024/01/11 09:27:35;;;;;;;43.38;17.60;;;-0.90;99.90;;;;;;4993145;28;20057;-81
2024/01/11 09:30:02;;;;;;;42.65;18.25;;;-0.80;99.90;;;;;;5007481;28;20491;-81
2024/01/11 09:32:30;;;;;;;39.83;17.20;;;-0.80;99.90;;;;;;5016000;28;20045;-81
2024/01/11 09:34:57;;;;;;;42.05;18.02;;;-0.80;99.90;;;;;;5002609;28;20491;-80
2024/01/11 09:37:23;;;;;;;44.28;17.90;;;-0.70;99.90;;;;;;4986760;28;20073;-81
2024/01/11 09:39:50;;;;;;;60.03;18.55;;;-0.70;99.90;;;;;;4997031;28;20842;-81
2024/01/11 09:42:18;;;;;;;44.88;18.02;;;0.10;99.90;;;;;;4996008;28;20512;-81
2024/01/11 09:44:46;;;;;;;41.70;18.25;;;-0.60;99.90;;;;;;4992762;28;20042;-81
2024/01/11 09:47:14;;;;;;;42.95;17.27;;;-0.50;99.90;;;;;;5020657;28;20042;-81
2024/01/11 09:49:42;;;;;;;36.15;15.52;;;-0.50;99.90;;;;;;5002988;28;20039;-81
2024/01/11 09:52:10;;;;;;;35.97;16.27;;;-0.40;99.90;;;;;;5015000;28;20050;-81
2024/01/11 09:54:37;;;;;;;39.75;16.80;;;-0.50;99.90;;;;;;5018370;28;20045;-81
2024/01/11 09:57:05;;;;;;;36.38;16.35;;;-0.40;99.90;;;;;;4981999;28;20094;-81
2024/01/11 09:59:33;;;;;;;40.92;17.45;;;-0.40;99.90;;;;;;5010620;28;20084;-81
2024/01/11 10:02:00;;;;;;;41.78;16.23;;;-0.30;99.90;;;;;;4994208;28;20101;-81
2024/01/11 10:04:28;;;;;;;39.05;16.95;;;-0.30;99.90;;;;;;4999938;28;20042;-81
2024/01/11 10:06:56;;;;;;;36.22;15.48;;;-0.30;99.90;;;;;;4994398;28;20434;-80
2024/01/11 10:09:23;;;;;;;37.88;15.63;;;-0.20;99.90;;;;;;4992487;28;20045;-81
2024/01/11 10:11:50;;;;;;;54.47;26.52;;;-0.20;99.90;;;;;;5003345;28;20398;-81
2024/01/11 10:14:17;;;;;;;51.65;24.40;;;-0.20;99.90;;;;;;5017431;28;20051;-81
2024/01/11 10:16:44;;;;;;;49.80;22.77;;;-0.20;99.90;;;;;;5030306;28;20041;-81
2024/01/11 10:19:13;;;;;;;39.92;20.05;;;0.00;99.90;;;;;;5006840;28;20042;-81
2024/01/11 10:21:40;;;;;;;38.53;16.58;;;0.40;99.90;;;;;;4994375;28;20031;-81
2024/01/11 10:24:07;;;;;;;40.30;18.05;;;0.40;99.90;;;;;;4993333;28;20126;-81
2024/01/11 10:26:33;;;;;;;38.80;17.50;;;-0.10;99.90;;;;;;4997334;28;20046;-81
2024/01/11 10:29:02;;;;;;;37.38;16.65;;;-0.10;99.90;;;;;;5015721;28;20486;-80
2024/01/11 10:31:29;;;;;;;33.47;16.58;;;0.00;99.90;;;;;;5013583;28;20085;-81
2024/01/11 10:33:56;;;;;;;38.67;17.15;;;0.40;99.90;;;;;;5014871;28;20045;-81
2024/01/11 10:36:23;;;;;;;37.92;16.80;;;0.00;99.90;;;;;;4999085;28;20104;-81
2024/01/11 10:38:52;;;;;;;36.10;16.15;;;0.00;99.90;;;;;;5026894;28;20506;-81
2024/01/11 10:41:20;;;;;;;37.05;15.85;;;0.00;99.90;;;;;;4995758;28;20065;-81
2024/01/11 10:43:48;;;;;;;41.80;18.20;;;0.10;99.90;;;;;;5020708;28;20053;-81
2024/01/11 10:46:18;;;;;;;39.25;18.33;;;0.00;99.90;;;;;;4994130;28;20046;-81
2024/01/11 10:48:48;;;;;;;31.75;15.10;;;0.10;99.90;;;;;;4998443;28;20765;-81
2024/01/11 10:51:19;;;;;;;36.63;17.33;;;0.10;99.90;;;;;;5006598;28;20063;-81
2024/01/11 10:53:47;;;;;;;39.50;17.55;;;0.10;99.90;;;;;;5016411;28;20161;-81
2024/01/11 10:56:18;;;;;;;32.95;16.63;;;0.10;99.90;;;;;;4985923;28;20504;-80
2024/01/11 10:58:48;;;;;;;36.83;16.88;;;0.20;99.90;;;;;;5014286;28;20031;-81
2024/01/11 11:01:16;;;;;;;31.85;14.88;;;0.20;99.90;;;;;;5007625;28;20038;-80
2024/01/11 11:03:44;;;;;;;33.10;16.15;;;0.30;99.90;;;;;;4995566;28;20407;-81
2024/01/11 11:06:11;;;;;;;35.63;15.82;;;0.30;99.90;;;;;;5013091;28;20038;-81
2024/01/11 11:08:39;;;;;;;33.60;16.02;;;0.30;99.90;;;;;;4997187;28;20470;-81
2024/01/11 11:11:07;;;;;;;36.72;16.13;;;0.40;99.90;;;;;;4997223;28;20073;-81
2024/01/11 11:13:37;;;;;;;33.40;15.57;;;0.40;99.90;;;;;;5005637;28;20069;-81
2024/01/11 11:16:05;;;;;;;38.90;16.02;;;0.50;99.90;;;;;;5011439;28;20126;-81
2024/01/11 11:18:34;;;;;;;36.88;15.93;;;0.50;99.90;;;;;;5016633;28;20049;-81
2024/01/11 11:21:06;;;;;;;40.45;16.50;;;0.50;99.90;;;;;;4999446;28;20038;-81
2024/01/11 11:23:33;;;;;;;60.72;24.77;;;0.60;99.90;;;;;;5028159;28;20037;-81
2024/01/11 11:26:00;;;;;;;69.22;27.85;;;0.60;99.90;;;;;;5008780;28;20069;-80
2024/01/11 11:28:27;;;;;;;108.88;38.28;;;1.20;99.90;;;;;;5002301;28;20039;-81
2024/01/11 11:30:55;;;;;;;75.10;29.17;;;0.60;99.90;;;;;;5013024;28;20048;-80
2024/01/11 11:33:26;;;;;;;60.38;24.50;;;0.70;99.90;;;;;;4986630;28;20054;-81
2024/01/11 11:35:54;;;;;;;31.85;14.23;;;0.60;99.90;;;;;;4992642;28;20049;-81
2024/01/11 11:38:22;;;;;;;26.17;13.93;;;0.70;99.90;;;;;;4989102;28;20432;-80
2024/01/11 11:40:52;;;;;;;84.47;32.25;;;0.70;99.90;;;;;;5008357;28;20070;-81
2024/01/11 11:43:22;;;;;;;32.70;13.95;;;1.20;99.90;;;;;;4991469;28;20042;-80
2024/01/11 11:45:50;;;;;;;36.13;18.65;;;0.80;99.90;;;;;;4996621;28;20030;-81
2024/01/11 11:48:32;;;;;;;33.20;16.35;;;0.80;99.90;;;;;;5018591;28;20038;-81
2024/01/11 11:51:06;;;;;;;31.50;14.68;;;0.80;99.90;;;;;;5014696;28;20054;-80
2024/01/11 11:53:40;;;;;;;26.48;12.68;;;0.90;99.90;;;;;;5014609;28;20495;-80
2024/01/11 11:56:16;;;;;;;31.25;15.43;;;0.80;99.90;;;;;;5013664;28;20411;-80
2024/01/11 11:58:44;;;;;;;32.97;14.02;;;0.80;99.90;;;;;;4982013;28;20074;-79
2024/01/11 12:01:13;;;;;;;29.80;13.75;;;0.80;99.90;;;;;;4991045;28;20030;-81
2024/01/11 12:03:41;;;;;;;27.77;14.00;;;0.80;99.90;;;;;;5025350;28;20088;-81
2024/01/11 12:06:13;;;;;;;29.45;14.65;;;0.80;99.90;;;;;;4998382;28;20042;-79
2024/01/11 12:08:42;;;;;;;30.73;14.07;;;0.80;99.90;;;;;;5014291;28;20505;-80
2024/01/11 12:11:12;;;;;;;29.95;14.18;;;0.80;99.90;;;;;;4987753;28;20085;-80
2024/01/11 12:13:40;;;;;;;31.20;13.07;;;0.70;99.90;;;;;;4983859;28;20053;-80
2024/01/11 12:16:07;;;;;;;27.20;12.70;;;0.80;99.90;;;;;;4997775;28;20042;-80
2024/01/11 12:18:33;;;;;;;27.67;12.65;;;0.80;99.90;;;;;;5014898;28;21415;-80
2024/01/11 12:21:00;;;;;;;32.45;15.30;;;0.80;99.90;;;;;;5002197;28;20894;-81
2024/01/11 12:23:30;;;;;;;33.10;17.60;;;0.80;99.90;;;;;;5017160;28;20042;-81
2024/01/11 12:25:58;;;;;;;36.45;18.50;;;0.90;99.90;;;;;;5019122;28;20046;-80
2024/01/11 12:28:24;;;;;;;37.28;17.20;;;0.90;99.90;;;;;;5006098;28;20141;-80